Etusivu
METAR-TAF:

METAR-TAF

Lentoasemat :

Pekingin kansainvälinen lentoasema

Peking, Kiina

Leveyspiiri: 39-56N, Pituuspiiri: 116-17E, korkeus merenpinnasta: 55 m

Tämänhetkinen sää

Tämä raportti tehtiin 21 minuuttia sitten, kello 17.30 UTC
Tuuli 4 kn koillisesta, vaihdellen pohjoisen/luoteen ja idän välillä
Lämpötila 14°C
Kosteus 72%
Ilmanpaine 1004 hPa
Näkyvyys 10 km tai enemmän
ei pilviä alle 1500 m:ssä eikä cumulonimbus-pilviä

METAR: ZBAA 211730Z 04002MPS 330V080 CAVOK 14/09 Q1004 NOSIG

Aika: 01:51 (17:51 UTC)

Sääennuste

Tämä raportti tehtiin 2 tuntia ja 31 minuuttia sitten, kello 15.20 UTC
Ennuste voimassa 21. päivästä klo 18 UTC - 22. päivään klo 18 UTC
Tuuli 8 kn etelästä
Näkyvyys 10 km tai enemmän
ei pilviä alle 1500 m:ssä eikä cumulonimbus-pilviä

TAF: ZBAA 211520Z 2118/2218 18004MPS CAVOK TX35/2207Z TN13/2121Z

Säähavainnot ja -ennusteet yli 4000 lentoasemalta (METAR- ja TAF-raportit).

Käytössä olevat sääasemat on merkitty karttaan keltaisilla ja punaisilla pisteillä.

Aseta hiiri pisteen päälle nähdäksesi sääaseman nimen.

Klikkaa sitten nähdäksesi säähavainnot ja -ennusteet.

Kartan vaihtaminen: klikkaa mustalla rastilla varustettuja vihreitä pisteitä, niin voit zoomata sisään; viivalla varustettua vihreää pistettä, niin voit zoomata ulos tai vihreitä nuolia, niin pääset viereisille kartoille.


METAR-TAF: